sensor_id;sensor_type;location;lat;lon;timestamp;temperature;humidity
28175;SHT30;59417;44.788;10.334;2023-03-05T00:01:12;9.39;63.96
28175;SHT30;59417;44.788;10.334;2023-03-05T00:03:38;9.28;64.30
28175;SHT30;59417;44.788;10.334;2023-03-05T00:06:04;9.25;64.58
28175;SHT30;59417;44.788;10.334;2023-03-05T00:08:31;9.30;64.26
28175;SHT30;59417;44.788;10.334;2023-03-05T00:10:58;9.25;64.47
28175;SHT30;59417;44.788;10.334;2023-03-05T00:13:24;9.18;64.40
28175;SHT30;59417;44.788;10.334;2023-03-05T00:15:49;9.17;64.71
28175;SHT30;59417;44.788;10.334;2023-03-05T00:18:15;9.07;64.93
28175;SHT30;59417;44.788;10.334;2023-03-05T00:20:40;9.23;64.65
28175;SHT30;59417;44.788;10.334;2023-03-05T00:23:06;9.37;63.82
28175;SHT30;59417;44.788;10.334;2023-03-05T00:25:35;9.35;63.81
28175;SHT30;59417;44.788;10.334;2023-03-05T00:28:01;9.34;64.09
28175;SHT30;59417;44.788;10.334;2023-03-05T00:30:26;9.42;63.57
28175;SHT30;59417;44.788;10.334;2023-03-05T00:32:52;9.34;63.61
28175;SHT30;59417;44.788;10.334;2023-03-05T00:35:18;9.37;63.67
28175;SHT30;59417;44.788;10.334;2023-03-05T00:37:44;9.41;63.57
28175;SHT30;59417;44.788;10.334;2023-03-05T00:40:10;9.30;63.74
28175;SHT30;59417;44.788;10.334;2023-03-05T00:42:36;9.34;63.80
28175;SHT30;59417;44.788;10.334;2023-03-05T00:45:07;9.30;63.82
28175;SHT30;59417;44.788;10.334;2023-03-05T00:47:33;9.38;63.48
28175;SHT30;59417;44.788;10.334;2023-03-05T00:49:58;9.35;63.18
28175;SHT30;59417;44.788;10.334;2023-03-05T00:52:24;9.24;63.58
28175;SHT30;59417;44.788;10.334;2023-03-05T00:54:50;9.30;63.52
28175;SHT30;59417;44.788;10.334;2023-03-05T00:57:15;9.35;63.23
28175;SHT30;59417;44.788;10.334;2023-03-05T00:59:41;9.28;63.34
28175;SHT30;59417;44.788;10.334;2023-03-05T01:02:06;9.20;63.81
28175;SHT30;59417;44.788;10.334;2023-03-05T01:04:32;9.18;63.55
28175;SHT30;59417;44.788;10.334;2023-03-05T01:06:58;9.11;63.82
28175;SHT30;59417;44.788;10.334;2023-03-05T01:09:23;9.08;63.83
28175;SHT30;59417;44.788;10.334;2023-03-05T01:11:50;9.11;63.45
28175;SHT30;59417;44.788;10.334;2023-03-05T01:14:16;9.11;63.96
28175;SHT30;59417;44.788;10.334;2023-03-05T01:16:42;8.94;64.50
28175;SHT30;59417;44.788;10.334;2023-03-05T01:19:09;8.92;64.23
28175;SHT30;59417;44.788;10.334;2023-03-05T01:21:35;8.73;65.01
28175;SHT30;59417;44.788;10.334;2023-03-05T01:24:02;8.70;65.18
28175;SHT30;59417;44.788;10.334;2023-03-05T01:26:28;8.73;65.04
28175;SHT30;59417;44.788;10.334;2023-03-05T01:28:53;8.80;64.50
28175;SHT30;59417;44.788;10.334;2023-03-05T01:31:19;8.62;65.18
28175;SHT30;59417;44.788;10.334;2023-03-05T01:33:45;8.72;64.76
28175;SHT30;59417;44.788;10.334;2023-03-05T01:36:14;8.67;64.46
28175;SHT30;59417;44.788;10.334;2023-03-05T01:38:44;8.59;64.58
28175;SHT30;59417;44.788;10.334;2023-03-05T01:41:12;8.50;64.90
28175;SHT30;59417;44.788;10.334;2023-03-05T01:43:38;8.36;65.14
28175;SHT30;59417;44.788;10.334;2023-03-05T01:46:29;8.29;65.35
28175;SHT30;59417;44.788;10.334;2023-03-05T01:51:31;8.22;65.65
28175;SHT30;59417;44.788;10.334;2023-03-05T01:53:57;8.17;65.76
28175;SHT30;59417;44.788;10.334;2023-03-05T01:56:25;8.22;65.82
28175;SHT30;59417;44.788;10.334;2023-03-05T01:58:52;8.08;66.52
28175;SHT30;59417;44.788;10.334;2023-03-05T02:01:18;8.29;65.44
28175;SHT30;59417;44.788;10.334;2023-03-05T02:03:45;8.33;65.23
28175;SHT30;59417;44.788;10.334;2023-03-05T02:06:11;8.31;65.16
28175;SHT30;59417;44.788;10.334;2023-03-05T02:08:37;8.31;65.14
28175;SHT30;59417;44.788;10.334;2023-03-05T02:11:03;8.45;64.63
28175;SHT30;59417;44.788;10.334;2023-03-05T02:13:32;8.43;64.65
28175;SHT30;59417;44.788;10.334;2023-03-05T02:15:59;8.45;64.84
28175;SHT30;59417;44.788;10.334;2023-03-05T02:18:25;8.46;64.89
28175;SHT30;59417;44.788;10.334;2023-03-05T02:23:21;8.56;65.44
28175;SHT30;59417;44.788;10.334;2023-03-05T02:25:47;8.43;65.20
28175;SHT30;59417;44.788;10.334;2023-03-05T02:30:45;8.38;65.29
28175;SHT30;59417;44.788;10.334;2023-03-05T02:33:13;8.38;65.45
28175;SHT30;59417;44.788;10.334;2023-03-05T02:35:39;8.33;65.51
28175;SHT30;59417;44.788;10.334;2023-03-05T02:38:05;8.50;65.21
28175;SHT30;59417;44.788;10.334;2023-03-05T02:40:31;8.48;65.09
28175;SHT30;59417;44.788;10.334;2023-03-05T02:42:56;8.45;65.58
28175;SHT30;59417;44.788;10.334;2023-03-05T02:45:23;8.42;65.77
28175;SHT30;59417;44.788;10.334;2023-03-05T02:47:48;8.35;65.78
28175;SHT30;59417;44.788;10.334;2023-03-05T02:50:14;8.35;65.58
28175;SHT30;59417;44.788;10.334;2023-03-05T02:52:40;8.33;65.42
28175;SHT30;59417;44.788;10.334;2023-03-05T02:55:11;8.02;66.29
28175;SHT30;59417;44.788;10.334;2023-03-05T02:57:38;8.17;65.74
28175;SHT30;59417;44.788;10.334;2023-03-05T03:00:05;8.15;65.99
28175;SHT30;59417;44.788;10.334;2023-03-05T03:02:31;8.22;65.82
28175;SHT30;59417;44.788;10.334;2023-03-05T03:04:56;8.07;66.78
28175;SHT30;59417;44.788;10.334;2023-03-05T03:07:22;7.97;66.63
28175;SHT30;59417;44.788;10.334;2023-03-05T03:09:48;8.11;66.11
28175;SHT30;59417;44.788;10.334;2023-03-05T03:12:13;7.93;66.42
28175;SHT30;59417;44.788;10.334;2023-03-05T03:14:40;7.93;66.77
28175;SHT30;59417;44.788;10.334;2023-03-05T03:17:08;7.88;66.72
28175;SHT30;59417;44.788;10.334;2023-03-05T03:19:34;7.95;66.40
28175;SHT30;59417;44.788;10.334;2023-03-05T03:22:00;7.84;67.21
28175;SHT30;59417;44.788;10.334;2023-03-05T03:24:26;7.61;67.30
28175;SHT30;59417;44.788;10.334;2023-03-05T03:26:53;7.57;67.36
28175;SHT30;59417;44.788;10.334;2023-03-05T03:29:18;7.51;67.50
28175;SHT30;59417;44.788;10.334;2023-03-05T03:31:44;7.53;67.44
28175;SHT30;59417;44.788;10.334;2023-03-05T03:34:11;7.59;67.45
28175;SHT30;59417;44.788;10.334;2023-03-05T03:36:37;7.59;67.49
28175;SHT30;59417;44.788;10.334;2023-03-05T03:39:03;7.66;67.44
28175;SHT30;59417;44.788;10.334;2023-03-05T03:41:31;7.49;68.09
28175;SHT30;59417;44.788;10.334;2023-03-05T03:43:56;7.42;68.45
28175;SHT30;59417;44.788;10.334;2023-03-05T03:46:22;7.36;68.51
28175;SHT30;59417;44.788;10.334;2023-03-05T03:48:51;7.33;68.14
28175;SHT30;59417;44.788;10.334;2023-03-05T03:51:16;7.43;67.94
28175;SHT30;59417;44.788;10.334;2023-03-05T03:53:42;7.44;68.22
28175;SHT30;59417;44.788;10.334;2023-03-05T03:56:07;7.35;68.27
28175;SHT30;59417;44.788;10.334;2023-03-05T03:58:33;7.27;68.41
28175;SHT30;59417;44.788;10.334;2023-03-05T04:00:58;7.20;68.38
28175;SHT30;59417;44.788;10.334;2023-03-05T04:03:24;7.26;68.68
28175;SHT30;59417;44.788;10.334;2023-03-05T04:05:50;7.29;68.48
28175;SHT30;59417;44.788;10.334;2023-03-05T04:08:15;7.39;68.42
28175;SHT30;59417;44.788;10.334;2023-03-05T04:10:41;7.32;68.22
28175;SHT30;59417;44.788;10.334;2023-03-05T04:13:06;7.29;68.72
28175;SHT30;59417;44.788;10.334;2023-03-05T04:15:33;7.43;68.71
28175;SHT30;59417;44.788;10.334;2023-03-05T04:17:59;7.47;69.43
28175;SHT30;59417;44.788;10.334;2023-03-05T04:20:24;7.25;69.11
28175;SHT30;59417;44.788;10.334;2023-03-05T04:22:50;7.27;68.78
28175;SHT30;59417;44.788;10.334;2023-03-05T04:25:16;7.20;69.04
28175;SHT30;59417;44.788;10.334;2023-03-05T04:27:48;7.30;68.34
28175;SHT30;59417;44.788;10.334;2023-03-05T04:30:17;7.33;68.55
28175;SHT30;59417;44.788;10.334;2023-03-05T04:32:42;7.26;69.02
28175;SHT30;59417;44.788;10.334;2023-03-05T04:35:08;7.27;68.50
28175;SHT30;59417;44.788;10.334;2023-03-05T04:37:34;7.20;68.51
28175;SHT30;59417;44.788;10.334;2023-03-05T04:39:59;7.14;68.49
28175;SHT30;59417;44.788;10.334;2023-03-05T04:42:25;7.20;68.50
28175;SHT30;59417;44.788;10.334;2023-03-05T04:44:51;7.32;68.03
28175;SHT30;59417;44.788;10.334;2023-03-05T04:47:17;7.26;67.96
28175;SHT30;59417;44.788;10.334;2023-03-05T04:49:43;7.15;68.11
28175;SHT30;59417;44.788;10.334;2023-03-05T04:52:10;7.01;68.51
28175;SHT30;59417;44.788;10.334;2023-03-05T04:54:36;6.87;69.00
28175;SHT30;59417;44.788;10.334;2023-03-05T04:57:02;6.88;69.03
28175;SHT30;59417;44.788;10.334;2023-03-05T04:59:27;6.89;69.03
28175;SHT30;59417;44.788;10.334;2023-03-05T05:01:53;6.85;68.80
28175;SHT30;59417;44.788;10.334;2023-03-05T05:04:18;6.85;68.60
28175;SHT30;59417;44.788;10.334;2023-03-05T05:06:44;6.75;68.70
28175;SHT30;59417;44.788;10.334;2023-03-05T05:09:09;6.64;68.96
28175;SHT30;59417;44.788;10.334;2023-03-05T05:11:35;6.78;68.68
28175;SHT30;59417;44.788;10.334;2023-03-05T05:14:00;6.78;68.53
28175;SHT30;59417;44.788;10.334;2023-03-05T05:16:26;6.77;68.69
28175;SHT30;59417;44.788;10.334;2023-03-05T05:18:51;6.74;68.52
28175;SHT30;59417;44.788;10.334;2023-03-05T05:21:17;6.71;68.52
28175;SHT30;59417;44.788;10.334;2023-03-05T05:23:43;6.82;68.05
28175;SHT30;59417;44.788;10.334;2023-03-05T05:26:09;6.84;67.97
28175;SHT30;59417;44.788;10.334;2023-03-05T05:28:38;6.88;67.73
28175;SHT30;59417;44.788;10.334;2023-03-05T05:31:08;6.89;67.64
28175;SHT30;59417;44.788;10.334;2023-03-05T05:33:35;6.89;67.36
28175;SHT30;59417;44.788;10.334;2023-03-05T05:36:05;6.67;68.98
28175;SHT30;59417;44.788;10.334;2023-03-05T05:38:31;6.54;68.62
28175;SHT30;59417;44.788;10.334;2023-03-05T05:41:08;6.53;68.45
28175;SHT30;59417;44.788;10.334;2023-03-05T05:43:34;6.45;68.32
28175;SHT30;59417;44.788;10.334;2023-03-05T05:46:01;6.47;68.31
28175;SHT30;59417;44.788;10.334;2023-03-05T05:48:28;6.29;68.91
28175;SHT30;59417;44.788;10.334;2023-03-05T05:50:54;6.30;68.86
28175;SHT30;59417;44.788;10.334;2023-03-05T05:53:20;6.29;68.87
28175;SHT30;59417;44.788;10.334;2023-03-05T05:55:46;6.21;69.14
28175;SHT30;59417;44.788;10.334;2023-03-05T05:58:12;6.23;68.97
28175;SHT30;59417;44.788;10.334;2023-03-05T06:00:38;6.34;68.81
28175;SHT30;59417;44.788;10.334;2023-03-05T06:03:03;6.31;68.84
28175;SHT30;59417;44.788;10.334;2023-03-05T06:05:29;6.33;68.76
28175;SHT30;59417;44.788;10.334;2023-03-05T06:07:54;6.29;69.90
28175;SHT30;59417;44.788;10.334;2023-03-05T06:10:20;6.27;69.29
28175;SHT30;59417;44.788;10.334;2023-03-05T06:12:46;6.37;69.18
28175;SHT30;59417;44.788;10.334;2023-03-05T06:15:11;6.24;69.34
28175;SHT30;59417;44.788;10.334;2023-03-05T06:17:37;6.13;69.19
28175;SHT30;59417;44.788;10.334;2023-03-05T06:20:04;6.17;68.95
28175;SHT30;59417;44.788;10.334;2023-03-05T06:22:31;6.27;68.81
28175;SHT30;59417;44.788;10.334;2023-03-05T06:24:59;6.48;68.33
28175;SHT30;59417;44.788;10.334;2023-03-05T06:27:25;6.61;67.88
28175;SHT30;59417;44.788;10.334;2023-03-05T06:29:52;6.53;68.16
28175;SHT30;59417;44.788;10.334;2023-03-05T06:32:18;6.64;67.94
28175;SHT30;59417;44.788;10.334;2023-03-05T06:34:44;6.64;68.13
28175;SHT30;59417;44.788;10.334;2023-03-05T06:37:10;6.64;68.78
28175;SHT30;59417;44.788;10.334;2023-03-05T06:39:35;6.58;68.99
28175;SHT30;59417;44.788;10.334;2023-03-05T06:42:01;6.71;68.61
28175;SHT30;59417;44.788;10.334;2023-03-05T06:44:27;6.73;68.26
28175;SHT30;59417;44.788;10.334;2023-03-05T06:46:52;6.73;68.81
28175;SHT30;59417;44.788;10.334;2023-03-05T06:49:18;6.92;68.08
28175;SHT30;59417;44.788;10.334;2023-03-05T06:51:44;7.15;66.79
28175;SHT30;59417;44.788;10.334;2023-03-05T06:54:11;7.30;66.06
28175;SHT30;59417;44.788;10.334;2023-03-05T06:56:38;7.43;65.50
28175;SHT30;59417;44.788;10.334;2023-03-05T06:59:04;7.14;65.45
28175;SHT30;59417;44.788;10.334;2023-03-05T07:01:30;7.23;65.19
28175;SHT30;59417;44.788;10.334;2023-03-05T07:03:56;7.46;64.76
28175;SHT30;59417;44.788;10.334;2023-03-05T07:06:28;7.70;63.42
28175;SHT30;59417;44.788;10.334;2023-03-05T07:08:55;7.84;63.50
28175;SHT30;59417;44.788;10.334;2023-03-05T07:11:21;8.00;64.41
28175;SHT30;59417;44.788;10.334;2023-03-05T07:13:48;8.08;63.82
28175;SHT30;59417;44.788;10.334;2023-03-05T07:16:27;8.05;64.34
28175;SHT30;59417;44.788;10.334;2023-03-05T07:18:55;8.14;63.92
28175;SHT30;59417;44.788;10.334;2023-03-05T07:21:27;8.25;62.76
28175;SHT30;59417;44.788;10.334;2023-03-05T07:23:54;8.35;62.49
28175;SHT30;59417;44.788;10.334;2023-03-05T07:26:20;8.43;62.04
28175;SHT30;59417;44.788;10.334;2023-03-05T07:28:46;8.54;61.97
28175;SHT30;59417;44.788;10.334;2023-03-05T07:31:17;8.66;62.40
28175;SHT30;59417;44.788;10.334;2023-03-05T07:33:44;8.81;61.95
28175;SHT30;59417;44.788;10.334;2023-03-05T07:36:11;9.04;61.01
28175;SHT30;59417;44.788;10.334;2023-03-05T07:38:37;9.14;59.80
28175;SHT30;59417;44.788;10.334;2023-03-05T07:41:11;9.15;60.01
28175;SHT30;59417;44.788;10.334;2023-03-05T07:43:38;9.14;60.43
28175;SHT30;59417;44.788;10.334;2023-03-05T07:46:08;9.17;61.08
28175;SHT30;59417;44.788;10.334;2023-03-05T07:48:35;9.01;60.07
28175;SHT30;59417;44.788;10.334;2023-03-05T07:51:06;8.90;61.38
28175;SHT30;59417;44.788;10.334;2023-03-05T07:53:32;8.99;62.24
28175;SHT30;59417;44.788;10.334;2023-03-05T07:55:57;8.97;61.61
28175;SHT30;59417;44.788;10.334;2023-03-05T07:58:23;9.11;62.08
28175;SHT30;59417;44.788;10.334;2023-03-05T08:00:48;9.17;61.81
28175;SHT30;59417;44.788;10.334;2023-03-05T08:03:14;9.27;61.40
28175;SHT30;59417;44.788;10.334;2023-03-05T08:05:40;9.49;60.76
28175;SHT30;59417;44.788;10.334;2023-03-05T08:08:06;9.61;60.96
28175;SHT30;59417;44.788;10.334;2023-03-05T08:10:33;9.79;61.11
28175;SHT30;59417;44.788;10.334;2023-03-05T08:12:59;9.82;59.83
28175;SHT30;59417;44.788;10.334;2023-03-05T08:15:24;9.89;60.11
28175;SHT30;59417;44.788;10.334;2023-03-05T08:17:50;10.02;59.68
28175;SHT30;59417;44.788;10.334;2023-03-05T08:20:16;10.13;59.41
28175;SHT30;59417;44.788;10.334;2023-03-05T08:22:44;10.26;58.63
28175;SHT30;59417;44.788;10.334;2023-03-05T08:25:11;10.29;59.40
28175;SHT30;59417;44.788;10.334;2023-03-05T08:27:42;10.50;59.06
28175;SHT30;59417;44.788;10.334;2023-03-05T08:30:10;10.54;59.88
28175;SHT30;59417;44.788;10.334;2023-03-05T08:32:36;10.65;59.43
28175;SHT30;59417;44.788;10.334;2023-03-05T08:35:02;10.64;59.03
28175;SHT30;59417;44.788;10.334;2023-03-05T08:37:29;10.65;58.58
28175;SHT30;59417;44.788;10.334;2023-03-05T08:39:55;10.64;58.49
28175;SHT30;59417;44.788;10.334;2023-03-05T08:42:22;10.75;58.81
28175;SHT30;59417;44.788;10.334;2023-03-05T08:44:47;11.01;58.28
28175;SHT30;59417;44.788;10.334;2023-03-05T08:47:13;11.08;57.04
28175;SHT30;59417;44.788;10.334;2023-03-05T08:49:39;11.12;58.20
28175;SHT30;59417;44.788;10.334;2023-03-05T08:52:04;10.99;57.00
28175;SHT30;59417;44.788;10.334;2023-03-05T08:54:29;11.09;57.02
28175;SHT30;59417;44.788;10.334;2023-03-05T08:56:58;11.18;58.31
28175;SHT30;59417;44.788;10.334;2023-03-05T08:59:24;11.38;58.43
28175;SHT30;59417;44.788;10.334;2023-03-05T09:01:50;11.42;56.76
28175;SHT30;59417;44.788;10.334;2023-03-05T09:04:15;11.46;56.10
28175;SHT30;59417;44.788;10.334;2023-03-05T09:06:44;11.63;56.55
28175;SHT30;59417;44.788;10.334;2023-03-05T09:09:09;11.80;57.20
28175;SHT30;59417;44.788;10.334;2023-03-05T09:11:38;11.83;55.57
28175;SHT30;59417;44.788;10.334;2023-03-05T09:14:05;11.98;56.23
28175;SHT30;59417;44.788;10.334;2023-03-05T09:16:31;12.09;55.39
28175;SHT30;59417;44.788;10.334;2023-03-05T09:18:57;12.05;56.02
28175;SHT30;59417;44.788;10.334;2023-03-05T09:21:23;12.07;55.74
28175;SHT30;59417;44.788;10.334;2023-03-05T09:23:48;11.97;55.73
28175;SHT30;59417;44.788;10.334;2023-03-05T09:26:14;11.99;55.36
28175;SHT30;59417;44.788;10.334;2023-03-05T09:28:43;12.01;55.67
28175;SHT30;59417;44.788;10.334;2023-03-05T09:31:09;11.98;55.18
28175;SHT30;59417;44.788;10.334;2023-03-05T09:33:36;12.07;55.37
28175;SHT30;59417;44.788;10.334;2023-03-05T09:36:02;12.21;55.50
28175;SHT30;59417;44.788;10.334;2023-03-05T09:38:28;12.14;55.21
28175;SHT30;59417;44.788;10.334;2023-03-05T09:41:03;12.34;55.69
28175;SHT30;59417;44.788;10.334;2023-03-05T09:43:47;12.51;54.34
28175;SHT30;59417;44.788;10.334;2023-03-05T09:46:26;12.51;53.46
28175;SHT30;59417;44.788;10.334;2023-03-05T09:49:19;12.69;53.90
28175;SHT30;59417;44.788;10.334;2023-03-05T09:51:53;12.83;53.34
28175;SHT30;59417;44.788;10.334;2023-03-05T09:54:52;12.65;53.86
28175;SHT30;59417;44.788;10.334;2023-03-05T09:57:19;12.90;54.24
28175;SHT30;59417;44.788;10.334;2023-03-05T09:59:57;13.20;53.61
28175;SHT30;59417;44.788;10.334;2023-03-05T10:02:27;13.03;54.21
28175;SHT30;59417;44.788;10.334;2023-03-05T10:07:49;13.00;54.03
28175;SHT30;59417;44.788;10.334;2023-03-05T10:10:24;12.89;54.39
28175;SHT30;59417;44.788;10.334;2023-03-05T10:12:54;13.19;54.62
28175;SHT30;59417;44.788;10.334;2023-03-05T10:18:48;13.06;54.78
28175;SHT30;59417;44.788;10.334;2023-03-05T10:24:22;13.66;54.06
28175;SHT30;59417;44.788;10.334;2023-03-05T10:27:07;13.77;55.10
28175;SHT30;59417;44.788;10.334;2023-03-05T10:29:55;14.09;54.85
28175;SHT30;59417;44.788;10.334;2023-03-05T10:33:05;14.39;54.29
28175;SHT30;59417;44.788;10.334;2023-03-05T10:44:26;14.95;52.85
28175;SHT30;59417;44.788;10.334;2023-03-05T10:46:58;15.07;53.80
28175;SHT30;59417;44.788;10.334;2023-03-05T10:49:31;14.87;51.73
28175;SHT30;59417;44.788;10.334;2023-03-05T10:54:36;14.92;52.23
28175;SHT30;59417;44.788;10.334;2023-03-05T10:57:20;14.95;52.30
28175;SHT30;59417;44.788;10.334;2023-03-05T10:59:52;14.98;52.25
28175;SHT30;59417;44.788;10.334;2023-03-05T11:02:20;15.19;53.88
28175;SHT30;59417;44.788;10.334;2023-03-05T11:04:55;15.27;52.29
28175;SHT30;59417;44.788;10.334;2023-03-05T11:10:17;15.76;53.60
28175;SHT30;59417;44.788;10.334;2023-03-05T11:12:44;15.91;50.30
28175;SHT30;59417;44.788;10.334;2023-03-05T11:17:39;16.00;51.15
28175;SHT30;59417;44.788;10.334;2023-03-05T11:29:00;16.14;50.66
28175;SHT30;59417;44.788;10.334;2023-03-05T11:31:31;16.21;50.97
28175;SHT30;59417;44.788;10.334;2023-03-05T11:34:09;16.33;48.47
28175;SHT30;59417;44.788;10.334;2023-03-05T11:39:21;16.51;51.67
28175;SHT30;59417;44.788;10.334;2023-03-05T11:41:57;16.64;49.93
28175;SHT30;59417;44.788;10.334;2023-03-05T11:49:46;16.98;48.86
28175;SHT30;59417;44.788;10.334;2023-03-05T11:57:20;16.98;49.21
28175;SHT30;59417;44.788;10.334;2023-03-05T11:59:47;16.96;49.62
28175;SHT30;59417;44.788;10.334;2023-03-05T12:02:23;17.06;51.24
28175;SHT30;59417;44.788;10.334;2023-03-05T12:04:50;17.13;49.72
28175;SHT30;59417;44.788;10.334;2023-03-05T12:07:33;17.09;49.71
28175;SHT30;59417;44.788;10.334;2023-03-05T12:10:00;17.12;49.89
28175;SHT30;59417;44.788;10.334;2023-03-05T12:15:37;17.30;49.54
28175;SHT30;59417;44.788;10.334;2023-03-05T12:23:16;17.46;49.44
28175;SHT30;59417;44.788;10.334;2023-03-05T12:25:51;17.46;48.56
28175;SHT30;59417;44.788;10.334;2023-03-05T12:33:40;17.49;47.04
28175;SHT30;59417;44.788;10.334;2023-03-05T12:38:50;17.55;49.11
28175;SHT30;59417;44.788;10.334;2023-03-05T12:46:33;17.61;47.68
28175;SHT30;59417;44.788;10.334;2023-03-05T12:51:57;17.77;48.82
28175;SHT30;59417;44.788;10.334;2023-03-05T12:54:32;17.84;47.04
28175;SHT30;59417;44.788;10.334;2023-03-05T12:57:02;17.81;47.81
28175;SHT30;59417;44.788;10.334;2023-03-05T12:59:44;17.77;45.50
28175;SHT30;59417;44.788;10.334;2023-03-05T13:02:21;17.40;44.69
28175;SHT30;59417;44.788;10.334;2023-03-05T13:04:48;17.37;46.97
28175;SHT30;59417;44.788;10.334;2023-03-05T13:07:17;17.40;47.25
28175;SHT30;59417;44.788;10.334;2023-03-05T13:09:54;17.49;47.75
28175;SHT30;59417;44.788;10.334;2023-03-05T13:12:21;17.55;47.78
28175;SHT30;59417;44.788;10.334;2023-03-05T13:20:37;17.85;48.42
28175;SHT30;59417;44.788;10.334;2023-03-05T13:23:23;17.88;47.62
28175;SHT30;59417;44.788;10.334;2023-03-05T13:26:18;17.78;46.68
28175;SHT30;59417;44.788;10.334;2023-03-05T13:29:02;17.84;45.65
28175;SHT30;59417;44.788;10.334;2023-03-05T13:31:28;17.77;45.09
28175;SHT30;59417;44.788;10.334;2023-03-05T13:34:10;17.46;45.06
28175;SHT30;59417;44.788;10.334;2023-03-05T13:36:38;17.40;44.92
28175;SHT30;59417;44.788;10.334;2023-03-05T13:39:04;17.50;46.36
28175;SHT30;59417;44.788;10.334;2023-03-05T13:41:32;17.60;47.36
28175;SHT30;59417;44.788;10.334;2023-03-05T13:43:59;17.57;46.66
28175;SHT30;59417;44.788;10.334;2023-03-05T13:46:35;17.64;47.52
28175;SHT30;59417;44.788;10.334;2023-03-05T13:49:24;17.71;47.98
28175;SHT30;59417;44.788;10.334;2023-03-05T13:51:53;17.80;47.19
28175;SHT30;59417;44.788;10.334;2023-03-05T13:54:20;17.87;47.49
28175;SHT30;59417;44.788;10.334;2023-03-05T13:56:54;17.94;44.56
28175;SHT30;59417;44.788;10.334;2023-03-05T13:59:22;17.75;46.06
28175;SHT30;59417;44.788;10.334;2023-03-05T14:01:51;17.85;47.05
28175;SHT30;59417;44.788;10.334;2023-03-05T14:04:20;17.75;46.22
28175;SHT30;59417;44.788;10.334;2023-03-05T14:09:17;17.82;46.34
28175;SHT30;59417;44.788;10.334;2023-03-05T14:12:01;17.73;46.85
28175;SHT30;59417;44.788;10.334;2023-03-05T14:14:28;17.66;45.77
28175;SHT30;59417;44.788;10.334;2023-03-05T14:17:36;17.67;45.64
28175;SHT30;59417;44.788;10.334;2023-03-05T14:22:43;17.69;46.07
28175;SHT30;59417;44.788;10.334;2023-03-05T14:27:57;17.74;44.79
28175;SHT30;59417;44.788;10.334;2023-03-05T14:30:24;17.61;46.26
28175;SHT30;59417;44.788;10.334;2023-03-05T14:32:53;17.70;46.63
28175;SHT30;59417;44.788;10.334;2023-03-05T14:35:22;17.31;45.55
28175;SHT30;59417;44.788;10.334;2023-03-05T14:37:50;16.92;46.04
28175;SHT30;59417;44.788;10.334;2023-03-05T14:40:22;16.66;47.04
28175;SHT30;59417;44.788;10.334;2023-03-05T14:43:01;16.75;47.71
28175;SHT30;59417;44.788;10.334;2023-03-05T14:45:36;16.91;47.38
28175;SHT30;59417;44.788;10.334;2023-03-05T14:48:04;17.02;46.98
28175;SHT30;59417;44.788;10.334;2023-03-05T14:50:36;17.16;47.04
28175;SHT30;59417;44.788;10.334;2023-03-05T14:53:06;17.17;46.17
28175;SHT30;59417;44.788;10.334;2023-03-05T14:55:34;17.22;47.26
28175;SHT30;59417;44.788;10.334;2023-03-05T14:58:20;17.26;46.16
28175;SHT30;59417;44.788;10.334;2023-03-05T15:00:47;17.24;45.75
28175;SHT30;59417;44.788;10.334;2023-03-05T15:03:15;17.23;46.25
28175;SHT30;59417;44.788;10.334;2023-03-05T15:05:42;17.29;46.85
28175;SHT30;59417;44.788;10.334;2023-03-05T15:08:14;17.30;47.14
28175;SHT30;59417;44.788;10.334;2023-03-05T15:10:41;17.31;46.72
28175;SHT30;59417;44.788;10.334;2023-03-05T15:13:07;17.36;45.55
28175;SHT30;59417;44.788;10.334;2023-03-05T15:15:33;17.31;46.61
28175;SHT30;59417;44.788;10.334;2023-03-05T15:17:58;17.34;46.36
28175;SHT30;59417;44.788;10.334;2023-03-05T15:20:28;17.34;47.56
28175;SHT30;59417;44.788;10.334;2023-03-05T15:22:54;17.30;47.82
28175;SHT30;59417;44.788;10.334;2023-03-05T15:25:22;17.31;46.78
28175;SHT30;59417;44.788;10.334;2023-03-05T15:27:48;17.12;47.19
28175;SHT30;59417;44.788;10.334;2023-03-05T15:32:57;16.94;47.80
28175;SHT30;59417;44.788;10.334;2023-03-05T15:35:24;17.02;47.99
28175;SHT30;59417;44.788;10.334;2023-03-05T15:37:50;16.91;48.04
28175;SHT30;59417;44.788;10.334;2023-03-05T15:40:16;16.91;49.56
28175;SHT30;59417;44.788;10.334;2023-03-05T15:42:42;16.91;49.30
28175;SHT30;59417;44.788;10.334;2023-03-05T15:45:08;16.91;49.38
28175;SHT30;59417;44.788;10.334;2023-03-05T15:47:34;16.94;47.73
28175;SHT30;59417;44.788;10.334;2023-03-05T15:49:59;16.92;47.18
28175;SHT30;59417;44.788;10.334;2023-03-05T15:52:25;16.86;47.61
28175;SHT30;59417;44.788;10.334;2023-03-05T15:54:50;16.88;48.12
28175;SHT30;59417;44.788;10.334;2023-03-05T15:57:18;16.65;49.67
28175;SHT30;59417;44.788;10.334;2023-03-05T15:59:45;16.59;49.24
28175;SHT30;59417;44.788;10.334;2023-03-05T16:02:11;16.62;48.52
28175;SHT30;59417;44.788;10.334;2023-03-05T16:04:36;16.62;48.46
28175;SHT30;59417;44.788;10.334;2023-03-05T16:07:02;16.61;48.42
28175;SHT30;59417;44.788;10.334;2023-03-05T16:09:34;16.71;48.12
28175;SHT30;59417;44.788;10.334;2023-03-05T16:12:02;16.65;48.55
28175;SHT30;59417;44.788;10.334;2023-03-05T16:14:29;16.72;48.76
28175;SHT30;59417;44.788;10.334;2023-03-05T16:16:58;16.49;49.10
28175;SHT30;59417;44.788;10.334;2023-03-05T16:19:25;16.48;49.47
28175;SHT30;59417;44.788;10.334;2023-03-05T16:21:51;16.38;50.00
28175;SHT30;59417;44.788;10.334;2023-03-05T16:24:17;16.31;49.58
28175;SHT30;59417;44.788;10.334;2023-03-05T16:26:42;16.38;49.74
28175;SHT30;59417;44.788;10.334;2023-03-05T16:29:08;16.27;50.67
28175;SHT30;59417;44.788;10.334;2023-03-05T16:31:35;16.12;50.18
28175;SHT30;59417;44.788;10.334;2023-03-05T16:34:02;16.16;49.65
28175;SHT30;59417;44.788;10.334;2023-03-05T16:36:29;16.23;50.07
28175;SHT30;59417;44.788;10.334;2023-03-05T16:38:57;16.17;49.29
28175;SHT30;59417;44.788;10.334;2023-03-05T16:41:23;15.98;50.41
28175;SHT30;59417;44.788;10.334;2023-03-05T16:43:50;15.96;51.02
28175;SHT30;59417;44.788;10.334;2023-03-05T16:46:17;15.86;51.07
28175;SHT30;59417;44.788;10.334;2023-03-05T16:48:44;15.84;51.54
28175;SHT30;59417;44.788;10.334;2023-03-05T16:51:10;15.83;51.66
28175;SHT30;59417;44.788;10.334;2023-03-05T16:53:37;15.76;51.84
28175;SHT30;59417;44.788;10.334;2023-03-05T16:56:05;15.62;52.16
28175;SHT30;59417;44.788;10.334;2023-03-05T16:58:32;15.55;52.77
28175;SHT30;59417;44.788;10.334;2023-03-05T17:00:59;15.56;53.03
28175;SHT30;59417;44.788;10.334;2023-03-05T17:03:25;15.52;52.75
28175;SHT30;59417;44.788;10.334;2023-03-05T17:05:52;15.59;52.53
28175;SHT30;59417;44.788;10.334;2023-03-05T17:08:17;15.52;51.15